Time;durP1;ratioP1;P1;durP2;ratioP2;P2;SDS_P1;SDS_P2;PMS_P1;PMS_P2;Temp;Humidity;BMP_temperature;BMP_pressure;BME280_temperature;BME280_humidity;BME280_pressure;Samples;Min_cycle;Max_cycle;Signal;HPM_P1;HPM_P2
2022/07/12 00:31:00;;;;;;;2.60;2.40;;;;;;;;;;6299768;22;20248;-93
2022/07/12 01:14:04;;;;;;;2.20;2.08;;;;;;;;;;5947961;24;20207;-93
2022/07/12 01:19:56;;;;;;;2.42;2.22;;;;;;;;;;6004279;23;20186;-93
2022/07/12 01:23:10;;;;;;;2.30;2.10;;;;;;;;;;6008496;23;20178;-93
2022/07/12 01:29:22;;;;;;;2.22;2.10;;;;;;;;;;5963479;23;20179;-93
2022/07/12 01:35:24;;;;;;;2.33;2.17;;;;;;;;;;6332971;22;20558;-92
2022/07/12 01:49:36;;;;;;;2.42;2.05;;;;;;;;;;6303345;22;20225;-93
2022/07/12 01:57:52;;;;;;;2.20;2.00;;;;;;;;;;6303478;22;20183;-92
2022/07/12 02:03:21;;;;;;;2.47;2.28;;;;;;;;;;6298806;22;20241;-92
2022/07/12 02:15:12;;;;;;;2.00;1.90;;;;;;;;;;6047579;23;20252;-92
2022/07/12 02:18:00;;;;;;;2.10;2.00;;;;;;;;;;6094436;23;20176;-92
2022/07/12 02:20:27;;;;;;;1.90;1.80;;;;;;;;;;6107678;22;20203;-90
2022/07/12 02:22:54;;;;;;;2.17;2.00;;;;;;;;;;6304963;22;20163;-90
2022/07/12 02:25:22;;;;;;;2.88;2.13;;;;;;;;;;6305746;22;20167;-90
2022/07/12 02:27:49;;;;;;;2.00;1.90;;;;;;;;;;6306609;22;20171;-90
2022/07/12 02:30:18;;;;;;;2.17;1.95;;;;;;;;;;6306564;22;20171;-90
2022/07/12 02:32:45;;;;;;;2.20;2.10;;;;;;;;;;6306378;22;20178;-90
2022/07/12 02:35:12;;;;;;;2.10;1.90;;;;;;;;;;6306948;22;20190;-90
2022/07/12 02:37:40;;;;;;;2.15;2.05;;;;;;;;;;6306505;22;20635;-90
2022/07/12 02:42:54;;;;;;;2.10;2.00;;;;;;;;;;6306403;22;20197;-91
2022/07/12 02:45:23;;;;;;;1.98;1.88;;;;;;;;;;6306316;22;20258;-90
2022/07/12 02:47:50;;;;;;;2.00;1.90;;;;;;;;;;6306571;22;20171;-90
2022/07/12 02:50:18;;;;;;;1.90;1.80;;;;;;;;;;6306633;22;20562;-90
2022/07/12 02:52:45;;;;;;;2.05;1.85;;;;;;;;;;6307587;22;20238;-90
2022/07/12 02:55:12;;;;;;;1.90;1.80;;;;;;;;;;6309436;22;20280;-91
2022/07/12 02:57:39;;;;;;;2.10;2.00;;;;;;;;;;6316882;22;20195;-90
2022/07/12 03:00:07;;;;;;;2.20;2.00;;;;;;;;;;6315579;22;20646;-90
2022/07/12 03:02:36;;;;;;;2.10;2.00;;;;;;;;;;6317006;22;20195;-90
2022/07/12 03:05:04;;;;;;;2.08;1.98;;;;;;;;;;6312994;22;20167;-90
2022/07/12 03:07:31;;;;;;;1.92;1.83;;;;;;;;;;6312382;22;20233;-90
2022/07/12 03:09:58;;;;;;;2.00;1.90;;;;;;;;;;6313964;22;20175;-90
2022/07/12 03:12:26;;;;;;;1.98;1.88;;;;;;;;;;6315909;22;20199;-90
2022/07/12 03:14:53;;;;;;;2.40;2.20;;;;;;;;;;6315843;22;20183;-90
2022/07/12 03:17:20;;;;;;;1.90;1.80;;;;;;;;;;6311462;22;20229;-90
2022/07/12 03:19:49;;;;;;;2.20;2.00;;;;;;;;;;6307622;22;20178;-91
2022/07/12 03:22:17;;;;;;;2.00;1.90;;;;;;;;;;6313498;22;20198;-91
2022/07/12 03:24:44;;;;;;;2.00;1.90;;;;;;;;;;6333658;22;20155;-90
2022/07/12 03:27:11;;;;;;;2.25;1.92;;;;;;;;;;6307137;22;20171;-90
2022/07/12 03:29:39;;;;;;;2.10;1.90;;;;;;;;;;6308383;22;20167;-90
2022/07/12 03:32:07;;;;;;;1.95;1.85;;;;;;;;;;6306816;22;20191;-90
2022/07/12 03:34:34;;;;;;;2.00;1.90;;;;;;;;;;6306270;22;20171;-90
2022/07/12 03:37:03;;;;;;;2.03;1.92;;;;;;;;;;6306109;22;20229;-90
2022/07/12 03:39:31;;;;;;;2.03;1.92;;;;;;;;;;6306052;22;20174;-89
2022/07/12 03:41:58;;;;;;;1.90;1.80;;;;;;;;;;6306631;22;20219;-90
2022/07/12 03:44:25;;;;;;;2.72;2.00;;;;;;;;;;6306149;22;20171;-90
2022/07/12 03:46:53;;;;;;;1.88;1.77;;;;;;;;;;6306243;22;20167;-90
2022/07/12 03:49:20;;;;;;;2.05;1.85;;;;;;;;;;6306293;22;20178;-90
2022/07/12 03:51:47;;;;;;;2.05;1.95;;;;;;;;;;6306093;22;20237;-90
2022/07/12 03:54:16;;;;;;;2.03;1.92;;;;;;;;;;6305969;22;20194;-90
2022/07/12 03:59:29;;;;;;;1.92;1.80;;;;;;;;;;6306264;22;20201;-91
2022/07/12 04:01:56;;;;;;;2.20;1.98;;;;;;;;;;6305802;22;20248;-92
2022/07/12 04:04:23;;;;;;;2.67;2.00;;;;;;;;;;6305746;22;20171;-90
2022/07/12 04:06:51;;;;;;;2.22;2.00;;;;;;;;;;6306472;22;20167;-91
2022/07/12 04:09:19;;;;;;;2.22;1.70;;;;;;;;;;6305865;22;20368;-91
2022/07/12 04:11:47;;;;;;;2.45;1.90;;;;;;;;;;6306302;22;20191;-90
2022/07/12 04:14:14;;;;;;;2.20;2.10;;;;;;;;;;6305725;22;20612;-90
2022/07/12 04:16:41;;;;;;;1.92;1.83;;;;;;;;;;6305995;22;20191;-91
2022/07/12 04:19:10;;;;;;;1.70;1.60;;;;;;;;;;6305787;22;20246;-90
2022/07/12 04:21:37;;;;;;;2.00;1.90;;;;;;;;;;6304751;22;20255;-89
2022/07/12 04:24:05;;;;;;;1.92;1.83;;;;;;;;;;6305659;22;20174;-90
2022/07/12 04:26:36;;;;;;;2.40;2.00;;;;;;;;;;6304805;22;20228;-90
2022/07/12 04:29:04;;;;;;;2.05;1.95;;;;;;;;;;6306206;22;20159;-90
2022/07/12 04:34:16;;;;;;;2.05;1.90;;;;;;;;;;6304678;22;20178;-90
2022/07/12 04:36:43;;;;;;;1.95;1.85;;;;;;;;;;6305786;22;20187;-90
2022/07/12 04:39:11;;;;;;;2.08;1.90;;;;;;;;;;6305805;22;20209;-91
2022/07/12 04:42:04;;;;;;;2.22;1.88;;;;;;;;;;6306540;22;20214;-92
2022/07/12 04:44:49;;;;;;;4.63;3.03;;;;;;;;;;6303710;22;20225;-91
2022/07/12 04:47:19;;;;;;;11.82;4.32;;;;;;;;;;6306862;22;20214;-91
2022/07/12 04:49:50;;;;;;;11.82;4.25;;;;;;;;;;6306196;22;20172;-91
2022/07/12 04:52:17;;;;;;;16.45;5.55;;;;;;;;;;6305271;22;20187;-93
2022/07/12 04:54:48;;;;;;;1999.90;999.90;;;;;;;;;;6308621;22;20179;-88
2022/07/12 04:57:15;;;;;;;1782.00;529.03;;;;;;;;;;6304837;22;20167;-91
2022/07/12 04:59:44;;;;;;;238.32;78.95;;;;;;;;;;6303791;22;20174;-90
2022/07/12 05:02:11;;;;;;;121.10;38.47;;;;;;;;;;6305017;22;20187;-89
2022/07/12 05:04:39;;;;;;;229.23;63.83;;;;;;;;;;6305640;22;20174;-91
2022/07/12 05:07:09;;;;;;;241.75;67.78;;;;;;;;;;6313488;22;20225;-92
2022/07/12 05:09:37;;;;;;;248.63;66.32;;;;;;;;;;6315903;22;20168;-92
2022/07/12 05:12:09;;;;;;;216.75;61.03;;;;;;;;;;6313361;22;20202;-92
2022/07/12 05:14:40;;;;;;;214.57;61.08;;;;;;;;;;6318499;22;20167;-93
2022/07/12 05:17:13;;;;;;;200.93;57.33;;;;;;;;;;6319356;22;20244;-92
2022/07/12 05:19:41;;;;;;;157.73;51.17;;;;;;;;;;6313677;22;20174;-93
2022/07/12 05:22:13;;;;;;;141.50;46.80;;;;;;;;;;6313333;22;20226;-94
2022/07/12 05:24:40;;;;;;;161.75;46.33;;;;;;;;;;6311605;22;20167;-92
2022/07/12 05:30:39;;;;;;;134.27;40.97;;;;;;;;;;6315670;22;20190;-93
2022/07/12 05:48:16;;;;;;;76.70;26.73;;;;;;;;;;6238191;22;20206;-93
2022/07/12 06:18:31;;;;;;;;;;;;;;;;;;;;;
2022/07/12 07:08:36;;;;;;;25.88;9.40;;;;;;;;;;6163384;23;20171;-93
2022/07/12 07:14:43;;;;;;;23.10;9.23;;;;;;;;;;6194348;23;20194;-93
2022/07/12 08:08:50;;;;;;;16.88;6.70;;;;;;;;;;6323118;22;20175;-94
2022/07/12 10:19:43;;;;;;;9.38;7.53;;;;;;;;;;6303572;22;20186;-89
2022/07/12 10:22:20;;;;;;;9.68;7.38;;;;;;;;;;6306775;22;20172;-90
2022/07/12 10:24:51;;;;;;;8.23;7.35;;;;;;;;;;6307442;22;20187;-90
2022/07/12 10:27:40;;;;;;;7.20;6.38;;;;;;;;;;6306405;22;20209;-90
2022/07/12 10:30:19;;;;;;;7.75;5.93;;;;;;;;;;6306446;22;20556;-89
2022/07/12 10:32:48;;;;;;;6.40;5.40;;;;;;;;;;6307240;22;20187;-90
2022/07/12 10:35:20;;;;;;;8.93;7.80;;;;;;;;;;6307940;22;20178;-90
2022/07/12 10:38:08;;;;;;;13.85;12.75;;;;;;;;;;6305379;22;20187;-89
2022/07/12 10:40:39;;;;;;;16.30;15.05;;;;;;;;;;6292908;22;20167;-89
2022/07/12 10:43:17;;;;;;;21.40;19.50;;;;;;;;;;6307427;22;20195;-91
2022/07/12 10:45:46;;;;;;;20.20;18.30;;;;;;;;;;6306874;22;20193;-89
2022/07/12 10:48:25;;;;;;;14.95;13.48;;;;;;;;;;6307602;22;20190;-91
2022/07/12 10:51:03;;;;;;;10.93;10.02;;;;;;;;;;6307228;22;20217;-91
2022/07/12 10:56:56;;;;;;;8.98;7.82;;;;;;;;;;6241269;23;20226;-91
2022/07/12 10:59:25;;;;;;;7.45;6.75;;;;;;;;;;6242323;23;20176;-92
2022/07/12 11:01:54;;;;;;;7.03;6.32;;;;;;;;;;6243179;23;20226;-87
2022/07/12 11:04:21;;;;;;;6.40;5.90;;;;;;;;;;6244281;23;20172;-91
2022/07/12 11:06:55;;;;;;;6.18;5.57;;;;;;;;;;6242751;23;20175;-90
2022/07/12 11:09:26;;;;;;;5.63;5.05;;;;;;;;;;6243041;23;20165;-88
2022/07/12 11:11:59;;;;;;;4.90;4.43;;;;;;;;;;6242242;23;20233;-91
2022/07/12 11:14:29;;;;;;;4.20;3.80;;;;;;;;;;6245485;22;20172;-89
2022/07/12 11:16:59;;;;;;;3.00;2.70;;;;;;;;;;6273045;22;20194;-90
2022/07/12 11:19:31;;;;;;;3.08;2.85;;;;;;;;;;6273114;22;20172;-90
2022/07/12 11:22:04;;;;;;;2.60;2.40;;;;;;;;;;6273554;22;20183;-89
2022/07/12 11:24:34;;;;;;;3.10;2.45;;;;;;;;;;6273738;22;20174;-90
2022/07/12 11:27:02;;;;;;;1.90;1.80;;;;;;;;;;6273839;22;20175;-89
2022/07/12 11:29:32;;;;;;;1.95;1.85;;;;;;;;;;6272012;22;20172;-88
2022/07/12 11:32:06;;;;;;;1.55;1.45;;;;;;;;;;6273262;22;20164;-88
2022/07/12 11:34:46;;;;;;;1.80;1.70;;;;;;;;;;6304922;22;20218;-89
2022/07/12 11:37:23;;;;;;;1.88;1.48;;;;;;;;;;6307137;22;20258;-89
2022/07/12 11:39:51;;;;;;;1.95;1.70;;;;;;;;;;6307812;22;20173;-89
2022/07/12 11:42:24;;;;;;;1.55;1.40;;;;;;;;;;6307820;22;20195;-89
2022/07/12 11:44:54;;;;;;;1.65;1.40;;;;;;;;;;6307251;22;20170;-89
2022/07/12 11:47:22;;;;;;;1.42;1.33;;;;;;;;;;6306662;22;20174;-89
2022/07/12 12:15:22;;;;;;;1.10;1.10;;;;;;;;;;6233952;23;20172;-91
2022/07/12 12:18:22;;;;;;;1.63;1.10;;;;;;;;;;6244959;23;20652;-91
2022/07/12 12:21:09;;;;;;;1.17;1.08;;;;;;;;;;6153356;23;20167;-92
2022/07/12 12:23:48;;;;;;;1.05;1.00;;;;;;;;;;6237935;23;20192;-88
2022/07/12 12:35:20;;;;;;;2.50;1.90;;;;;;;;;;6204632;23;20196;-89
2022/07/12 12:38:26;;;;;;;2.03;1.70;;;;;;;;;;6216278;23;20190;-90
2022/07/12 12:47:53;;;;;;;;;;;;;;;;;;;;;
2022/07/12 13:11:28;;;;;;;0.85;0.85;;;;;;;;;;6020471;23;20183;-87
2022/07/12 13:14:00;;;;;;;1.08;0.50;;;;;;;;;;6093940;23;20196;-89
2022/07/12 13:19:57;;;;;;;1.17;0.70;;;;;;;;;;6077163;23;20248;-91
2022/07/12 13:22:30;;;;;;;0.60;0.60;;;;;;;;;;6094186;23;20610;-92
2022/07/12 13:28:00;;;;;;;0.50;0.50;;;;;;;;;;6089256;23;20251;-88
2022/07/12 13:43:27;;;;;;;1.25;0.65;;;;;;;;;;5997291;23;20196;-88
2022/07/12 14:20:44;;;;;;;;;;;;;;;;;;;;;
2022/07/12 17:17:18;;;;;;;1.17;0.80;;;;;;;;;;6234058;22;20219;-94
2022/07/12 17:48:05;;;;;;;4.90;4.22;;;;;;;;;;6216040;22;20211;-90
2022/07/12 18:05:41;;;;;;;40.90;35.15;;;;;;;;;;6268272;22;20203;-92
2022/07/12 18:08:27;;;;;;;42.65;35.35;;;;;;;;;;6283917;22;20187;-92
2022/07/12 18:16:39;;;;;;;37.63;32.90;;;;;;;;;;6133277;23;20211;-92
2022/07/12 18:19:14;;;;;;;34.10;29.85;;;;;;;;;;6218934;23;20179;-93
2022/07/12 18:21:52;;;;;;;34.22;28.98;;;;;;;;;;6263809;23;20182;-90
2022/07/12 18:24:31;;;;;;;28.08;24.92;;;;;;;;;;6268866;22;20204;-93
2022/07/12 18:33:14;;;;;;;23.70;18.35;;;;;;;;;;6269314;22;20181;-92
2022/07/12 18:36:29;;;;;;;21.52;18.00;;;;;;;;;;6264912;23;20168;-91
2022/07/12 18:42:12;;;;;;;18.45;14.68;;;;;;;;;;6190924;23;20177;-93
2022/07/12 18:45:20;;;;;;;;;;;;;;;;;;;;;
2022/07/12 18:51:01;;;;;;;16.33;12.27;;;;;;;;;;6187803;23;20232;-91
2022/07/12 18:53:31;;;;;;;13.10;10.60;;;;;;;;;;6185831;23;20337;-91
2022/07/12 19:04:45;;;;;;;;;;;;;;;;;;;;;
2022/07/12 19:07:15;;;;;;;9.88;7.00;;;;;;;;;;6218505;23;20189;-93
2022/07/12 19:12:34;;;;;;;8.20;6.65;;;;;;;;;;6211467;23;20169;-93
2022/07/12 19:15:04;;;;;;;7.63;5.53;;;;;;;;;;6216157;23;20263;-93
2022/07/12 19:17:34;;;;;;;7.85;5.50;;;;;;;;;;6215914;23;20196;-93
2022/07/12 19:20:18;;;;;;;7.95;5.15;;;;;;;;;;6241166;23;20180;-93
2022/07/12 19:22:51;;;;;;;7.40;4.82;;;;;;;;;;6247152;22;20176;-92
2022/07/12 19:25:22;;;;;;;5.88;4.35;;;;;;;;;;6252740;23;20176;-92
2022/07/12 19:28:04;;;;;;;5.65;4.32;;;;;;;;;;6262170;23;20159;-93
2022/07/12 19:30:37;;;;;;;5.28;3.85;;;;;;;;;;6262868;23;20164;-92
2022/07/12 19:33:18;;;;;;;4.57;3.67;;;;;;;;;;6255108;22;20197;-94
2022/07/12 19:36:11;;;;;;;4.70;3.67;;;;;;;;;;6252729;23;20243;-92
2022/07/12 19:41:49;;;;;;;4.15;2.83;;;;;;;;;;6233685;22;20176;-92
2022/07/12 19:47:25;;;;;;;4.68;2.70;;;;;;;;;;6271124;22;20176;-93
2022/07/12 19:55:52;;;;;;;2.95;2.42;;;;;;;;;;6270899;22;20168;-92
2022/07/12 20:04:58;;;;;;;;;;;;;;;;;;;;;
2022/07/12 20:17:01;;;;;;;2.70;1.98;;;;;;;;;;6153838;23;20174;-92
